createdAt,value
2018-05-26T00:00:35.834Z,88.90
2018-05-26T00:01:36.015Z,88.81
2018-05-26T00:02:36.183Z,88.71
2018-05-26T00:03:36.352Z,88.90
2018-05-26T00:04:36.494Z,88.90
2018-05-26T00:05:36.680Z,89.09
2018-05-26T00:06:36.858Z,88.71
2018-05-26T00:07:37.201Z,88.71
2018-05-26T00:08:37.247Z,88.13
2018-05-26T00:09:37.505Z,88.51
2018-05-26T00:10:37.638Z,88.32
2018-05-26T00:11:37.880Z,88.42
2018-05-26T00:12:37.938Z,88.67
2018-05-26T00:13:38.110Z,89.15
2018-05-26T00:14:38.269Z,89.53
2018-05-26T00:15:38.557Z,90.40
2018-05-26T00:16:38.619Z,91.07
2018-05-26T00:17:38.779Z,90.69
2018-05-26T00:18:38.952Z,90.59
2018-05-26T00:19:39.155Z,90.50
2018-05-26T00:20:39.250Z,91.07
2018-05-26T00:21:39.655Z,89.82
2018-05-26T00:22:39.638Z,90.11
2018-05-26T00:23:39.809Z,89.43
2018-05-26T00:24:39.949Z,89.43
2018-05-26T00:25:40.176Z,89.63
2018-05-26T00:26:40.306Z,89.34
2018-05-26T00:27:40.453Z,89.82
2018-05-26T00:28:40.716Z,89.63
2018-05-26T00:29:40.802Z,89.43
2018-05-26T00:30:41.049Z,88.47
2018-05-26T00:31:41.176Z,87.70
2018-05-26T00:32:41.345Z,87.32
2018-05-26T00:33:41.504Z,87.22
2018-05-26T00:34:41.646Z,87.70
2018-05-26T00:35:41.982Z,87.99
2018-05-26T00:36:42.004Z,87.90
2018-05-26T00:37:42.173Z,87.22
2018-05-26T00:38:42.320Z,87.41
2018-05-26T00:39:42.473Z,87.08
2018-05-26T00:40:42.663Z,86.89
2018-05-26T00:41:42.820Z,87.76
2018-05-26T00:42:43.016Z,87.32
2018-05-26T00:43:43.159Z,87.46
2018-05-26T00:44:43.367Z,88.24
2018-05-26T00:45:43.517Z,88.62
2018-05-26T00:46:43.709Z,88.81
2018-05-26T00:47:43.921Z,89.10
2018-05-26T00:48:44.132Z,89.39
2018-05-26T00:49:44.229Z,89.78
2018-05-26T00:50:44.397Z,90.06
2018-05-26T00:51:44.601Z,90.45
2018-05-26T00:52:44.776Z,90.55
2018-05-26T00:53:44.916Z,91.27
2018-05-26T00:54:45.230Z,90.79
2018-05-26T00:55:45.351Z,90.79
2018-05-26T00:56:45.694Z,91.56
2018-05-26T00:57:45.644Z,91.66
2018-05-26T00:58:45.989Z,91.17
2018-05-26T00:59:46.023Z,91.46
2018-05-26T01:00:46.185Z,91.08
2018-05-26T01:01:46.617Z,91.46
2018-05-26T01:02:46.486Z,91.27
2018-05-26T01:03:46.640Z,91.17
2018-05-26T01:04:46.825Z,91.36
2018-05-26T01:05:46.980Z,91.27
2018-05-26T01:06:47.154Z,91.27
2018-05-26T01:07:47.308Z,91.27
2018-05-26T01:08:47.489Z,90.59
2018-05-26T01:09:47.670Z,90.26
2018-05-26T01:10:47.807Z,90.55
2018-05-26T01:11:47.988Z,90.45
2018-05-26T01:12:48.130Z,90.16
2018-05-26T01:13:48.303Z,89.87
2018-05-26T01:14:48.467Z,89.97
2018-05-26T01:15:48.622Z,89.78
2018-05-26T01:16:48.789Z,90.35
2018-05-26T01:17:48.964Z,90.55
2018-05-26T01:18:49.123Z,90.59
2018-05-26T01:19:49.297Z,91.08
2018-05-26T01:20:49.466Z,91.56
2018-05-26T01:21:49.640Z,92.23
2018-05-26T01:22:49.803Z,91.85
2018-05-26T01:23:49.964Z,91.56
2018-05-26T01:24:50.091Z,92.33
2018-05-26T01:25:50.282Z,91.56
2018-05-26T01:26:50.430Z,91.17
2018-05-26T01:27:50.594Z,91.03
2018-05-26T01:28:50.758Z,90.73
2018-05-26T01:29:50.922Z,90.64
2018-05-26T01:30:51.084Z,89.87
2018-05-26T01:31:51.245Z,89.20
2018-05-26T01:32:51.437Z,89.58
2018-05-26T01:33:51.632Z,89.49
2018-05-26T01:34:51.749Z,89.58
2018-05-26T01:35:51.906Z,89.20
2018-05-26T01:36:52.153Z,89.87
2018-05-26T01:37:52.239Z,89.39
2018-05-26T01:38:52.421Z,89.49
2018-05-26T01:39:52.576Z,89.39
2018-05-26T01:40:52.749Z,90.16
2018-05-26T01:41:52.936Z,89.87
2018-05-26T01:42:53.077Z,89.78
2018-05-26T01:43:53.267Z,89.97
2018-05-26T01:44:53.652Z,89.78
2018-05-26T01:45:53.659Z,89.78
2018-05-26T01:46:53.798Z,89.68
2018-05-26T01:47:53.972Z,90.31
2018-05-26T01:48:54.156Z,90.50
2018-05-26T01:49:54.310Z,90.98
2018-05-26T01:50:54.463Z,90.41
2018-05-26T01:51:54.631Z,90.59
2018-05-26T01:52:54.784Z,90.50
2018-05-26T01:53:54.957Z,91.46
2018-05-26T01:54:55.121Z,90.79
2018-05-26T01:55:55.299Z,91.08
2018-05-26T01:56:55.488Z,91.27
2018-05-26T01:57:55.679Z,91.27
2018-05-26T01:58:55.812Z,90.98
2018-05-26T01:59:56.244Z,90.59
2018-05-26T02:00:56.193Z,90.50
2018-05-26T02:01:56.341Z,90.02
2018-05-26T02:02:56.562Z,90.02
2018-05-26T02:03:56.728Z,89.73
2018-05-26T02:04:56.840Z,89.15
2018-05-26T02:05:57.091Z,88.87
2018-05-26T02:06:57.221Z,89.06
2018-05-26T02:07:57.382Z,88.87
2018-05-26T02:08:57.679Z,89.15
2018-05-26T02:09:57.733Z,89.15
2018-05-26T02:10:57.891Z,89.35
2018-05-26T02:11:58.174Z,90.02
2018-05-26T02:12:58.210Z,90.31
2018-05-26T02:13:58.379Z,90.36
2018-05-26T02:14:58.523Z,91.22
2018-05-26T02:15:58.733Z,90.55
2018-05-26T02:16:58.913Z,90.55
2018-05-26T02:17:59.051Z,90.55
2018-05-26T02:18:59.212Z,89.78
2018-05-26T02:19:59.421Z,89.98
2018-05-26T02:20:59.548Z,89.69
2018-05-26T02:21:59.736Z,90.26
2018-05-26T02:22:59.927Z,90.55
2018-05-26T02:24:00.381Z,90.65
2018-05-26T02:25:00.300Z,90.07
2018-05-26T02:26:00.445Z,91.22
2018-05-26T02:27:00.624Z,91.13
2018-05-26T02:28:00.911Z,91.32
2018-05-26T02:29:00.913Z,91.52
2018-05-26T02:30:01.061Z,91.42
2018-05-26T02:31:01.201Z,91.99
2018-05-26T02:32:01.500Z,91.99
2018-05-26T02:33:01.539Z,92.05
2018-05-26T02:34:01.698Z,92.09
2018-05-26T02:35:01.873Z,91.99
2018-05-26T02:36:02.084Z,92.05
2018-05-26T02:37:02.195Z,91.61
2018-05-26T02:38:02.393Z,90.94
2018-05-26T02:39:02.568Z,91.18
2018-05-26T02:40:02.690Z,90.07
2018-05-26T02:41:02.880Z,90.36
2018-05-26T02:42:03.127Z,90.45
2018-05-26T02:43:03.167Z,90.45
2018-05-26T02:44:03.336Z,90.55
2018-05-26T02:45:03.501Z,90.41
2018-05-26T02:46:03.677Z,90.84
2018-05-26T02:47:03.852Z,90.12
2018-05-26T02:48:04.015Z,90.03
2018-05-26T02:49:04.188Z,90.22
2018-05-26T02:50:04.348Z,90.17
2018-05-26T02:51:04.535Z,90.03
2018-05-26T02:52:04.703Z,90.89
2018-05-26T02:53:04.879Z,90.31
2018-05-26T02:54:05.034Z,91.18
2018-05-26T02:55:05.219Z,90.89
2018-05-26T02:56:05.368Z,91.47
2018-05-26T02:57:05.549Z,92.05
2018-05-26T02:58:05.713Z,91.95
2018-05-26T02:59:05.911Z,91.85
2018-05-26T03:00:06.180Z,91.85
2018-05-26T03:01:06.217Z,91.56
2018-05-26T03:02:06.410Z,91.66
2018-05-26T03:03:06.575Z,91.95
2018-05-26T03:04:06.742Z,92.33
2018-05-26T03:05:06.911Z,91.37
2018-05-26T03:06:07.104Z,91.95
2018-05-26T03:07:07.274Z,91.56
2018-05-26T03:08:07.452Z,91.95
2018-05-26T03:09:07.592Z,91.75
2018-05-26T03:10:07.773Z,91.75
2018-05-26T03:11:07.992Z,91.85
2018-05-26T03:12:08.122Z,92.14
2018-05-26T03:13:08.289Z,91.37
2018-05-26T03:14:08.449Z,91.28
2018-05-26T03:15:08.650Z,91.95
2018-05-26T03:16:08.788Z,92.05
2018-05-26T03:17:09.007Z,92.05
2018-05-26T03:18:09.421Z,92.05
2018-05-26T03:19:09.171Z,91.95
2018-05-26T03:20:09.341Z,91.75
2018-05-26T03:21:09.666Z,91.95
2018-05-26T03:22:09.660Z,91.95
2018-05-26T03:23:09.836Z,91.66
2018-05-26T03:24:10.008Z,92.24
2018-05-26T03:25:10.174Z,92.33
2018-05-26T03:26:10.334Z,92.91
2018-05-26T03:27:10.533Z,92.52
2018-05-26T03:28:10.705Z,92.62
2018-05-26T03:29:10.843Z,92.43
2018-05-26T03:30:11.015Z,92.52
2018-05-26T03:31:11.205Z,92.24
2018-05-26T03:32:11.381Z,92.05
2018-05-26T03:33:11.523Z,92.05
2018-05-26T03:34:11.668Z,91.66
2018-05-26T03:35:11.837Z,91.66
2018-05-26T03:36:12.895Z,91.66
2018-05-26T03:37:12.210Z,91.95
2018-05-26T03:38:13.172Z,92.14
2018-05-26T03:39:13.188Z,92.05
2018-05-26T03:40:13.048Z,92.14
2018-05-26T03:41:13.323Z,91.85
2018-05-26T03:43:46.085Z,92.43
2018-05-26T03:44:46.259Z,92.05
2018-05-26T03:45:46.638Z,91.95
2018-05-26T03:46:46.623Z,91.95
2018-05-26T03:47:46.789Z,91.28
2018-05-26T03:48:46.964Z,90.80
2018-05-26T03:49:47.757Z,90.41
2018-05-26T03:50:47.867Z,90.51
2018-05-26T03:51:47.845Z,90.12
2018-05-26T03:52:48.067Z,90.80
2018-05-26T03:53:48.076Z,90.80
2018-05-26T03:54:48.879Z,91.47
2018-05-26T03:55:48.599Z,91.66
2018-05-26T03:56:48.914Z,91.75
2018-05-26T03:57:49.225Z,91.56
2018-05-26T03:58:49.204Z,91.85
2018-05-26T03:59:48.943Z,92.14
2018-05-26T04:00:49.005Z,91.85
2018-05-26T04:01:49.180Z,91.47
2018-05-26T04:02:49.350Z,90.51
2018-05-26T04:03:49.520Z,89.36
2018-05-26T04:04:49.683Z,88.97
2018-05-26T04:05:49.873Z,88.78
2018-05-26T04:06:50.025Z,88.87
2018-05-26T04:07:50.188Z,88.97
2018-05-26T04:08:50.361Z,89.45
2018-05-26T04:09:50.537Z,89.16
2018-05-26T04:10:50.701Z,90.41
2018-05-26T04:11:50.870Z,90.41
2018-05-26T04:12:51.047Z,90.31
2018-05-26T04:13:51.214Z,90.22
2018-05-26T04:14:51.388Z,90.70
2018-05-26T04:15:51.559Z,90.03
2018-05-26T04:16:51.729Z,89.26
2018-05-26T04:17:51.898Z,89.36
2018-05-26T04:18:52.062Z,89.45
2018-05-26T04:19:52.304Z,89.30
2018-05-26T04:20:52.433Z,89.26
2018-05-26T04:21:52.609Z,89.45
2018-05-26T04:22:52.808Z,89.40
2018-05-26T04:23:52.976Z,90.07
2018-05-26T04:24:53.145Z,89.88
2018-05-26T04:25:53.502Z,90.17
2018-05-26T04:26:53.431Z,89.69
2018-05-26T04:27:53.622Z,89.59
2018-05-26T04:28:53.808Z,89.50
2018-05-26T04:29:53.978Z,89.21
2018-05-26T04:30:54.145Z,89.69
2018-05-26T04:31:54.312Z,89.69
2018-05-26T04:32:54.485Z,89.88
2018-05-26T04:33:54.645Z,89.88
2018-05-26T04:34:54.812Z,90.07
2018-05-26T04:35:54.984Z,90.70
2018-05-26T04:36:55.155Z,90.45
2018-05-26T04:37:55.559Z,90.36
2018-05-26T04:38:55.503Z,90.55
2018-05-26T04:39:55.679Z,90.65
2018-05-26T04:40:55.849Z,90.45
2018-05-26T04:41:56.308Z,90.36
2018-05-26T04:42:56.162Z,90.51
2018-05-26T04:43:56.311Z,90.89
2018-05-26T04:44:56.565Z,91.08
2018-05-26T04:45:56.627Z,91.66
2018-05-26T04:46:57.847Z,91.66
2018-05-26T04:47:57.679Z,91.52
2018-05-26T04:48:57.176Z,91.61
2018-05-26T04:49:57.350Z,91.52
2018-05-26T04:50:57.669Z,92.09
2018-05-26T04:51:57.707Z,91.80
2018-05-26T04:52:58.080Z,92.38
2018-05-26T04:53:58.080Z,91.37
2018-05-26T04:54:58.145Z,91.52
2018-05-26T04:55:58.338Z,91.28
2018-05-26T04:56:58.650Z,91.42
2018-05-26T04:57:58.657Z,91.61
2018-05-26T04:58:58.814Z,91.03
2018-05-26T04:59:58.977Z,91.61
2018-05-26T05:00:59.152Z,91.32
2018-05-26T05:01:59.321Z,91.13
2018-05-26T05:02:59.491Z,91.32
2018-05-26T05:03:59.887Z,91.13
2018-05-26T05:04:59.994Z,90.75
2018-05-26T05:05:59.986Z,90.59
2018-05-26T05:07:00.158Z,90.50
2018-05-26T05:08:00.334Z,90.12
2018-05-26T05:09:00.500Z,90.31
2018-05-26T05:10:00.808Z,90.02
2018-05-26T05:11:00.893Z,89.73
2018-05-26T05:12:01.075Z,89.73
2018-05-26T05:13:01.255Z,90.31
2018-05-26T05:14:01.647Z,89.35
2018-05-26T05:15:01.610Z,89.83
2018-05-26T05:16:01.783Z,90.02
2018-05-26T05:17:01.971Z,90.12
2018-05-26T05:18:02.268Z,89.83
2018-05-26T05:19:02.288Z,89.83
2018-05-26T05:20:02.459Z,89.73
2018-05-26T05:21:02.623Z,90.12
2018-05-26T05:22:03.000Z,90.21
2018-05-26T05:23:02.975Z,90.41
2018-05-26T05:24:03.189Z,90.45
2018-05-26T05:25:03.372Z,90.64
2018-05-26T05:26:03.507Z,90.73
2018-05-26T05:27:03.678Z,90.35
2018-05-26T05:28:03.875Z,90.26
2018-05-26T05:29:04.018Z,90.16
2018-05-26T05:30:04.189Z,90.73
2018-05-26T05:31:04.354Z,90.45
2018-05-26T05:32:04.533Z,90.73
2018-05-26T05:33:04.716Z,90.64
2018-05-26T05:34:04.869Z,90.16
2018-05-26T05:35:05.047Z,89.97
2018-05-26T05:36:05.336Z,89.58
2018-05-26T05:37:05.424Z,89.39
2018-05-26T05:38:05.609Z,89.05
2018-05-26T05:39:05.880Z,89.05
2018-05-26T05:40:05.996Z,88.76
2018-05-26T05:41:06.248Z,89.24
2018-05-26T05:42:06.313Z,88.85
2018-05-26T05:43:06.596Z,89.72
2018-05-26T05:44:06.709Z,89.53
2018-05-26T05:45:07.155Z,89.49
2018-05-26T05:46:07.094Z,90.45
2018-05-26T05:47:07.293Z,90.78
2018-05-26T05:48:07.428Z,90.26
2018-05-26T05:49:07.654Z,90.26
2018-05-26T05:50:07.948Z,90.26
2018-05-26T05:51:08.041Z,90.40
2018-05-26T05:52:09.195Z,90.16
2018-05-26T05:53:08.348Z,90.26
2018-05-26T05:54:08.550Z,89.78
2018-05-26T05:55:08.917Z,90.26
2018-05-26T05:56:09.166Z,89.78
2018-05-26T05:57:09.055Z,90.11
2018-05-26T05:58:09.221Z,89.82
2018-05-26T05:59:09.396Z,90.40
2018-05-26T06:00:09.751Z,89.82
2018-05-26T06:01:09.894Z,90.78
2018-05-26T06:02:10.112Z,90.11
2018-05-26T06:03:10.214Z,89.72
2018-05-26T06:04:10.473Z,88.95
2018-05-26T06:05:10.573Z,89.82
2018-05-26T06:06:10.673Z,89.82
2018-05-26T06:07:10.828Z,89.53
2018-05-26T06:08:11.254Z,89.34
2018-05-26T06:09:11.178Z,89.53
2018-05-26T06:10:11.302Z,89.43
2018-05-26T06:11:11.473Z,89.34
2018-05-26T06:12:11.647Z,89.63
2018-05-26T06:13:11.821Z,90.20
2018-05-26T06:14:11.975Z,89.72
2018-05-26T06:15:12.229Z,89.92
2018-05-26T06:16:12.395Z,90.30
2018-05-26T06:17:12.540Z,90.30
2018-05-26T06:18:12.737Z,89.53
2018-05-26T06:19:12.893Z,90.25
2018-05-26T06:20:13.066Z,89.96
2018-05-26T06:21:13.243Z,90.06
2018-05-26T06:22:13.408Z,88.75
2018-05-26T06:23:13.578Z,88.56
2018-05-26T06:24:13.752Z,87.79
2018-05-26T06:25:13.936Z,88.08
2018-05-26T06:26:14.101Z,87.88
2018-05-26T06:27:14.271Z,87.45
2018-05-26T06:28:14.440Z,87.35
2018-05-26T06:29:14.613Z,86.96
2018-05-26T06:30:14.788Z,86.48
2018-05-26T06:31:15.010Z,87.06
2018-05-26T06:32:15.132Z,86.33
2018-05-26T06:33:15.371Z,85.94
2018-05-26T06:34:15.429Z,86.24
2018-05-26T06:35:15.600Z,86.24
2018-05-26T06:36:15.862Z,85.94
2018-05-26T06:37:15.907Z,86.24
2018-05-26T06:38:16.086Z,86.04
2018-05-26T06:39:16.250Z,85.94
2018-05-26T06:40:16.557Z,85.56
2018-05-26T06:41:16.625Z,85.50
2018-05-26T06:42:16.958Z,85.12
2018-05-26T06:43:16.928Z,84.83
2018-05-26T06:44:17.103Z,84.35
2018-05-26T06:45:17.375Z,84.06
2018-05-26T06:46:17.440Z,84.44
2018-05-26T06:47:17.611Z,84.30
2018-05-26T06:48:18.790Z,84.54
2018-05-26T06:49:17.936Z,86.03
2018-05-26T06:50:18.115Z,85.06
2018-05-26T06:51:18.397Z,84.00
2018-05-26T06:52:18.464Z,84.20
2018-05-26T06:53:18.634Z,84.25
2018-05-26T06:54:18.804Z,85.31
2018-05-26T06:55:18.975Z,85.84
2018-05-26T06:56:19.140Z,85.16
2018-05-26T06:57:19.321Z,84.48
2018-05-26T06:58:19.526Z,84.72
2018-05-26T06:59:19.673Z,84.43
2018-05-26T07:00:19.981Z,83.95
2018-05-26T07:01:19.999Z,83.18
2018-05-26T07:02:20.297Z,82.60
2018-05-26T07:03:20.382Z,82.79
2018-05-26T07:04:20.557Z,82.15
2018-05-26T07:05:20.731Z,81.87
2018-05-26T07:06:20.896Z,81.29
2018-05-26T07:07:21.072Z,81.19
2018-05-26T07:08:21.248Z,81.04
2018-05-26T07:09:21.443Z,80.74
2018-05-26T07:10:21.620Z,79.97
2018-05-26T07:11:21.827Z,79.91
2018-05-26T07:12:22.145Z,79.62
2018-05-26T07:13:22.241Z,78.66
2018-05-26T07:14:22.413Z,78.17
2018-05-26T07:15:22.733Z,77.98
2018-05-26T07:16:23.873Z,76.91
2018-05-26T07:17:23.137Z,77.05
2018-05-26T07:18:23.296Z,76.08
2018-05-26T07:19:23.346Z,75.98
2018-05-26T07:20:23.526Z,76.56
2018-05-26T07:21:23.704Z,76.08
2018-05-26T07:22:23.985Z,75.02
2018-05-26T07:23:23.992Z,74.82
2018-05-26T07:24:24.208Z,74.28
2018-05-26T07:25:24.364Z,74.38
2018-05-26T07:26:24.536Z,73.60
2018-05-26T07:27:25.694Z,73.60
2018-05-26T07:28:24.880Z,73.50
2018-05-26T07:29:25.047Z,72.92
2018-05-26T07:30:25.210Z,73.11
2018-05-26T07:31:25.391Z,73.02
2018-05-26T07:32:25.573Z,72.09
2018-05-26T07:33:25.745Z,71.70
2018-05-26T07:34:26.034Z,72.09
2018-05-26T07:35:26.030Z,71.50
2018-05-26T07:36:26.202Z,71.22
2018-05-26T07:37:26.371Z,70.15
2018-05-26T07:38:26.551Z,69.99
2018-05-26T07:39:26.811Z,69.79
2018-05-26T07:40:26.922Z,70.18
2018-05-26T07:41:27.703Z,69.79
2018-05-26T07:42:27.131Z,69.79
2018-05-26T07:43:27.311Z,69.41
2018-05-26T07:44:27.481Z,68.92
2018-05-26T07:45:27.662Z,69.34
2018-05-26T07:46:27.838Z,69.73
2018-05-26T07:47:27.995Z,69.54
2018-05-26T07:48:28.170Z,70.03
2018-05-26T07:49:28.351Z,69.48
2018-05-26T07:50:28.519Z,69.28
2018-05-26T07:51:28.701Z,68.60
2018-05-26T07:52:30.709Z,67.54
2018-05-26T07:53:29.041Z,67.34
2018-05-26T07:54:30.702Z,68.21
2018-05-26T07:55:30.209Z,67.73
2018-05-26T07:56:29.582Z,66.66
2018-05-26T07:57:29.695Z,67.34
2018-05-26T07:58:29.862Z,66.66
2018-05-26T07:59:30.038Z,66.69
2018-05-26T08:00:31.205Z,65.63
2018-05-26T08:01:30.394Z,66.11
2018-05-26T08:02:30.576Z,65.63
2018-05-26T08:03:30.764Z,65.63
2018-05-26T08:04:30.943Z,65.92
2018-05-26T08:05:31.115Z,65.08
2018-05-26T08:06:31.294Z,63.91
2018-05-26T08:07:31.462Z,64.11
2018-05-26T08:08:31.640Z,65.24
2018-05-26T08:09:31.822Z,65.27
2018-05-26T08:10:31.985Z,64.11
2018-05-26T08:11:32.167Z,63.62
2018-05-26T08:12:33.216Z,64.11
2018-05-26T08:13:32.589Z,64.20
2018-05-26T08:14:32.798Z,63.23
2018-05-26T08:15:33.243Z,63.26
2018-05-26T08:16:33.072Z,62.77
2018-05-26T08:17:34.210Z,62.38
2018-05-26T08:18:33.396Z,62.10
2018-05-26T08:19:33.652Z,62.10
2018-05-26T08:20:33.801Z,61.51
2018-05-26T08:21:34.105Z,61.80
2018-05-26T08:22:34.162Z,61.80
2018-05-26T08:23:34.335Z,61.02
2018-05-26T08:24:34.530Z,60.05
2018-05-26T08:25:34.860Z,60.47
2018-05-26T08:26:34.855Z,59.59
2018-05-26T08:27:35.026Z,59.59
2018-05-26T08:28:35.201Z,59.59
2018-05-26T08:29:35.382Z,60.86
2018-05-26T08:30:35.555Z,60.21
2018-05-26T08:31:35.772Z,58.46
2018-05-26T08:32:35.894Z,58.85
2018-05-26T08:33:36.070Z,59.53
2018-05-26T08:34:36.360Z,58.95
2018-05-26T08:35:36.481Z,58.85
2018-05-26T08:36:36.676Z,59.36
2018-05-26T08:37:36.826Z,58.87
2018-05-26T08:38:37.014Z,58.10
2018-05-26T08:39:37.210Z,59.14
2018-05-26T08:40:37.375Z,59.27
2018-05-26T08:41:37.686Z,59.27
2018-05-26T08:42:37.759Z,59.07
2018-05-26T08:43:37.935Z,58.39
2018-05-26T08:44:38.114Z,57.90
2018-05-26T08:45:38.287Z,57.81
2018-05-26T08:46:38.453Z,58.13
2018-05-26T08:47:38.637Z,57.45
2018-05-26T08:48:38.818Z,57.37
2018-05-26T08:49:38.983Z,56.89
2018-05-26T08:50:39.729Z,55.91
2018-05-26T08:51:39.289Z,55.85
2018-05-26T08:52:39.461Z,56.23
2018-05-26T08:53:39.674Z,54.19
2018-05-26T08:54:39.876Z,54.87
2018-05-26T08:55:40.105Z,53.99
2018-05-26T08:56:40.225Z,53.89
2018-05-26T08:57:40.412Z,54.19
2018-05-26T08:58:41.224Z,54.09
2018-05-26T08:59:40.844Z,54.87
2018-05-26T09:00:40.960Z,54.28
2018-05-26T09:01:41.658Z,55.07
2018-05-26T09:02:41.275Z,56.33
2018-05-26T09:03:41.462Z,55.75
2018-05-26T09:04:41.740Z,54.99
2018-05-26T09:05:42.738Z,53.95
2018-05-26T09:06:42.043Z,52.00
2018-05-26T09:07:42.211Z,50.85
2018-05-26T09:08:42.385Z,53.09
2018-05-26T09:09:42.561Z,52.51
2018-05-26T09:10:42.742Z,51.92
2018-05-26T09:11:42.927Z,50.95
2018-05-26T09:12:43.725Z,49.88
2018-05-26T09:13:43.280Z,49.63
2018-05-26T09:14:43.493Z,47.92
2018-05-26T09:15:43.680Z,44.17
2018-05-26T09:16:43.852Z,42.29
2018-05-26T09:17:44.040Z,40.47
2018-05-26T09:18:44.779Z,39.70
2018-05-26T09:19:44.562Z,38.26
2018-05-26T09:20:44.683Z,36.41
2018-05-26T09:21:44.721Z,35.77
2018-05-26T09:22:44.923Z,35.04
2018-05-26T09:23:45.111Z,33.21
2018-05-26T09:24:46.227Z,30.88
2018-05-26T09:25:45.423Z,29.32
2018-05-26T09:26:45.873Z,28.64
2018-05-26T09:27:45.852Z,27.30
2018-05-26T09:28:46.727Z,27.21
2018-05-26T09:29:46.324Z,26.13
2018-05-26T09:30:46.466Z,26.06
2018-05-26T09:31:46.657Z,24.77
2018-05-26T09:32:46.846Z,24.49
2018-05-26T09:33:47.726Z,23.41
2018-05-26T09:34:47.161Z,22.91
2018-05-26T09:35:48.252Z,22.92
2018-05-26T09:36:47.557Z,22.53
2018-05-26T09:37:47.739Z,21.94
2018-05-26T09:38:47.928Z,21.84
2018-05-26T09:39:48.195Z,22.05
2018-05-26T09:40:48.262Z,21.85
2018-05-26T09:41:48.466Z,22.06
2018-05-26T09:42:48.634Z,21.08
2018-05-26T09:43:48.847Z,20.28
2018-05-26T09:44:49.201Z,20.97
2018-05-26T09:45:49.209Z,21.36
2018-05-26T09:46:49.423Z,21.26
2018-05-26T09:47:49.585Z,21.90
2018-05-26T09:48:49.771Z,24.57
2018-05-26T09:49:49.970Z,24.35
2018-05-26T09:50:50.142Z,22.89
2018-05-26T09:51:50.344Z,23.77
2018-05-26T09:52:50.649Z,24.17
2018-05-26T09:53:50.978Z,24.17
2018-05-26T09:54:51.107Z,23.30
2018-05-26T09:55:51.176Z,23.27
2018-05-26T09:56:51.379Z,24.54
2018-05-26T09:57:51.549Z,26.07
2018-05-26T09:58:51.743Z,26.42
2018-05-26T09:59:51.919Z,25.45
2018-05-26T10:00:52.106Z,23.67
2018-05-26T10:01:52.298Z,23.11
2018-05-26T10:02:52.483Z,22.34
2018-05-26T10:03:52.895Z,20.98
2018-05-26T10:04:52.841Z,20.29
2018-05-26T10:05:53.032Z,19.01
2018-05-26T10:06:53.213Z,18.23
2018-05-26T10:07:53.411Z,18.73
2018-05-26T10:08:53.575Z,18.64
2018-05-26T10:09:53.768Z,18.44
2018-05-26T10:10:53.962Z,18.62
2018-05-26T10:11:54.155Z,18.54
2018-05-26T10:12:54.345Z,17.94
2018-05-26T10:13:54.538Z,18.13
2018-05-26T10:14:54.736Z,17.55
2018-05-26T10:15:54.927Z,17.66
2018-05-26T10:16:55.122Z,17.86
2018-05-26T10:17:55.328Z,17.07
2018-05-26T10:18:55.539Z,16.47
2018-05-26T10:19:55.734Z,16.08
2018-05-26T10:20:55.921Z,16.27
2018-05-26T10:21:56.135Z,15.47
2018-05-26T10:22:56.330Z,17.83
2018-05-26T10:23:56.533Z,17.83
2018-05-26T10:24:56.728Z,17.14
2018-05-26T10:25:56.936Z,16.85
2018-05-26T10:26:57.213Z,16.56
2018-05-26T10:27:57.275Z,16.66
2018-05-26T10:28:57.470Z,15.97
2018-05-26T10:29:57.696Z,15.37
2018-05-26T10:30:57.859Z,15.28
2018-05-26T10:31:58.056Z,15.38
2018-05-26T10:32:58.282Z,15.99
2018-05-26T10:33:58.463Z,16.46
2018-05-26T10:34:58.663Z,16.64
2018-05-26T10:35:58.877Z,16.56
2018-05-26T10:36:59.057Z,16.67
2018-05-26T10:37:59.267Z,16.56
2018-05-26T10:38:59.817Z,15.75
2018-05-26T10:39:59.756Z,16.06
2018-05-26T10:40:59.893Z,14.97
2018-05-26T10:42:00.096Z,15.27
2018-05-26T10:43:00.296Z,15.37
2018-05-26T10:44:00.496Z,15.20
2018-05-26T10:45:00.703Z,13.70
2018-05-26T10:46:00.908Z,13.49
2018-05-26T10:47:01.092Z,13.29
2018-05-26T10:48:01.283Z,13.40
2018-05-26T10:49:01.487Z,12.69
2018-05-26T10:50:01.760Z,13.31
2018-05-26T10:51:01.911Z,12.50
2018-05-26T10:52:02.298Z,13.10
2018-05-26T10:53:02.325Z,12.80
2018-05-26T10:54:02.530Z,13.51
2018-05-26T10:55:02.768Z,13.31
2018-05-26T10:56:02.954Z,12.60
2018-05-26T10:57:03.159Z,12.80
2018-05-26T10:58:03.362Z,12.49
2018-05-26T10:59:03.565Z,13.00
2018-05-26T11:00:03.767Z,12.70
2018-05-26T11:01:04.784Z,12.49
2018-05-26T11:02:04.202Z,13.09
2018-05-26T11:03:04.395Z,14.07
2018-05-26T11:04:04.599Z,13.88
2018-05-26T11:05:04.793Z,14.56
2018-05-26T11:06:05.000Z,15.25
2018-05-26T11:07:05.200Z,14.56
2018-05-26T11:08:05.404Z,15.17
2018-05-26T11:09:05.607Z,13.68
2018-05-26T11:10:05.801Z,13.57
2018-05-26T11:11:06.081Z,15.17
2018-05-26T11:12:06.226Z,13.76
2018-05-26T11:13:06.429Z,15.04
2018-05-26T11:14:06.606Z,15.16
2018-05-26T11:15:06.811Z,14.56
2018-05-26T11:16:07.048Z,13.26
2018-05-26T11:17:07.240Z,14.64
2018-05-26T11:18:07.406Z,14.53
2018-05-26T11:19:07.611Z,15.69
2018-05-26T11:20:07.809Z,16.59
2018-05-26T11:21:08.017Z,17.44
2018-05-26T11:22:08.223Z,18.23
2018-05-26T11:23:08.449Z,19.29
2018-05-26T11:24:08.793Z,18.84
2018-05-26T11:25:08.832Z,17.28
2018-05-26T11:26:09.097Z,16.01
2018-05-26T11:27:09.233Z,15.24
2018-05-26T11:28:09.430Z,13.65
2018-05-26T11:29:09.627Z,13.26
2018-05-26T11:30:09.824Z,13.65
2018-05-26T11:31:10.092Z,13.95
2018-05-26T11:32:10.219Z,14.76
2018-05-26T11:33:10.465Z,14.45
2018-05-26T11:34:10.630Z,15.70
2018-05-26T11:35:10.836Z,16.20
2018-05-26T11:36:11.045Z,17.58
2018-05-26T11:37:11.267Z,18.19
2018-05-26T11:38:11.439Z,17.78
2018-05-26T11:39:11.645Z,18.28
2018-05-26T11:40:11.840Z,18.36
2018-05-26T11:41:12.044Z,19.06
2018-05-26T11:42:12.251Z,19.17
2018-05-26T11:43:12.430Z,17.90
2018-05-26T11:44:12.627Z,17.51
2018-05-26T11:45:12.864Z,16.01
2018-05-26T11:46:13.065Z,16.00
2018-05-26T11:47:13.263Z,17.50
2018-05-26T11:48:13.461Z,16.39
2018-05-26T11:49:13.666Z,17.07
2018-05-26T11:50:13.860Z,17.39
2018-05-26T11:51:14.066Z,16.10
2018-05-26T11:52:14.310Z,16.20
2018-05-26T11:53:14.525Z,16.53
2018-05-26T11:54:14.677Z,15.34
2018-05-26T11:55:14.872Z,14.64
2018-05-26T11:56:15.064Z,15.16
2018-05-26T11:57:15.382Z,15.06
2018-05-26T11:58:15.489Z,14.47
2018-05-26T11:59:15.672Z,14.28
2018-05-26T12:00:15.875Z,13.70
2018-05-26T12:01:16.096Z,13.60
2018-05-26T12:02:16.288Z,13.90
2018-05-26T12:03:16.476Z,13.31
2018-05-26T12:04:16.671Z,13.42
2018-05-26T12:05:16.906Z,13.02
2018-05-26T12:06:17.097Z,12.63
2018-05-26T12:07:17.293Z,12.12
2018-05-26T12:08:17.517Z,12.02
2018-05-26T12:09:17.720Z,12.03
2018-05-26T12:10:17.919Z,11.72
2018-05-26T12:11:18.122Z,11.63
2018-05-26T12:12:18.325Z,11.73
2018-05-26T12:13:18.522Z,11.61
2018-05-26T12:14:18.727Z,11.72
2018-05-26T12:15:18.925Z,12.44
2018-05-26T12:16:19.122Z,11.33
2018-05-26T12:17:19.337Z,11.23
2018-05-26T12:18:19.535Z,11.64
2018-05-26T12:19:19.751Z,11.34
2018-05-26T12:20:20.144Z,11.84
2018-05-26T12:21:20.229Z,11.64
2018-05-26T12:22:20.441Z,11.33
2018-05-26T12:23:20.634Z,11.63
2018-05-26T12:28:26.676Z,12.60
2018-05-26T12:28:47.323Z,12.41
2018-05-26T12:29:47.520Z,12.51
2018-05-26T12:30:47.720Z,12.61
2018-05-26T12:31:47.922Z,13.18
2018-05-26T12:32:48.128Z,15.24
2018-05-26T12:33:48.322Z,16.60
2018-05-26T12:34:48.524Z,17.76
2018-05-26T12:37:32.686Z,19.98
2018-05-26T12:38:30.755Z,20.95
2018-05-26T12:39:30.951Z,21.92
2018-05-26T12:40:31.136Z,22.11
2018-05-26T12:41:31.331Z,21.91
2018-05-26T12:42:31.526Z,21.10
2018-05-26T12:43:31.718Z,22.89
2018-05-26T12:44:31.917Z,22.88
2018-05-26T12:45:32.104Z,22.77
2018-05-26T12:46:32.302Z,24.24
2018-05-26T12:47:32.491Z,25.82
2018-05-26T12:48:33.590Z,27.18
2018-05-26T12:49:32.903Z,26.18
2018-05-26T12:50:33.080Z,27.07
2018-05-26T12:51:33.273Z,26.26
2018-05-26T12:52:33.459Z,26.75
2018-05-26T12:53:33.653Z,26.55
2018-05-26T12:54:33.838Z,27.23
2018-05-26T12:55:34.027Z,29.69
2018-05-26T12:56:34.204Z,29.60
2018-05-26T12:57:34.393Z,27.23
2018-05-26T12:58:34.586Z,26.04
2018-05-26T12:59:35.585Z,29.30
2018-05-26T13:00:34.974Z,28.78
2018-05-26T13:01:35.166Z,29.34